Abbasi, Pakistan

8:04 AM PKT on July 22, 2017 (GMT +0500)
Lahore International | | Change Station

Elev 712 ft 31.52 °N, 74.40 °E | Updated 39 minutes ago

Partly Cloudy
Partly Cloudy
86 °F
Feels Like 102 °F
N
12
Wind Variable Wind from SSE

Today
High -- | Low -- °F
--% Chance of Precip.
Yesterday
High -- | Low -- °F
Precip. -- in
Pressure 29.56 in
Visibility 2.5 miles
Clouds Scattered Clouds 4000 ft
Scattered Clouds 10000 ft
Heat Index 102 °F
Dew Point 81 °F
Humidity 84%
Rainfall 0.00 in
Snow Depth Not available.
5:15 AM 7:07 PM
Waning Crescent, 2% visible
METAR OPLA 220225Z 16010KT 4000 FU SCT040 SCT100 30/27 Q1001 A29.54
Pressure 29.56 in
Visibility 2.5 miles
Clouds Scattered Clouds 4000 ft
Scattered Clouds 10000 ft
Heat Index 102 °F
Dew Point 81 °F
Humidity 84%
Rainfall 0.00 in
Snow Depth Not available.
5:15 AM 7:07 PM
Waning Crescent, 2% visible
METAR OPLA 220225Z 16010KT 4000 FU SCT040 SCT100 30/27 Q1001 A29.54

Get Severe Weather Alerts

Thanks for signing up!

Be on the lookout for a verification email in your inbox.

You'll start receiving the daily forecast at 6 AM.

×

10-Day Weather Forecast

No radar image for this location.
×

Almanac

Astronomy

Jul. 22, 2017 Rise Set
Actual Time
Civil Twilight
Nautical Twilight
Astronomical Twilight
Moon
Length of Visible Light
Length of Day
Tomorrow will be .
, % of the Moon is Illuminated

Today's Extremes

Country Highs Country Lows

Community

WunderPhotos

Category 6

Welcome to Category 6. This is the collective home for Weather Underground's featured writeups by Dr. Jeff Masters (right), Bob Henson (left), Chris Burt, and other regular contributors.

Nearby

Air Quality

  Air Quality AQ Index Pollutant
Not available.

Snow Depth

Station Depth Elevation

Earthquake Activity

City Distance Mag. Time & Date
Minimum magnitude displayed is 2.5.

Coastal Water Temperatures

Place Temperature

Stations

Nearby Weather Stations

Station Location Temp. Windchill Dew Point Humidity Wind Precip. Elev Updated Type